Time;durP1;ratioP1;P1;durP2;ratioP2;P2;SDS_P1;SDS_P2;PMS_P1;PMS_P2;Temp;Humidity;BMP_temperature;BMP_pressure;BME280_temperature;BME280_humidity;BME280_pressure;Samples;Min_cycle;Max_cycle;Signal;HPM_P1;HPM_P2
2024/04/24 00:02:19;;;;;;;;;29.00;23.00;;;;;3.49;71.74;100098.95;112464;236;40369;-57
2024/04/24 00:05:00;;;;;;;;;28.67;19.00;;;;;3.47;71.74;100098.44;112450;232;170066;-56
2024/04/24 00:07:34;;;;;;;;;24.00;20.00;;;;;3.45;71.79;100090.13;113035;230;39632;-56
2024/04/24 00:10:09;;;;;;;;;26.67;20.00;;;;;3.44;71.84;100089.16;113049;230;40589;-56
2024/04/24 00:12:42;;;;;;;;;28.50;23.00;;;;;3.46;71.79;100086.63;112335;234;169722;-56
2024/04/24 00:15:17;;;;;;;;;29.00;20.00;;;;;3.45;71.83;100090.31;112571;236;40170;-59
2024/04/24 00:17:53;;;;;;;;;22.50;18.00;;;;;3.45;71.89;100083.35;112422;232;169676;-58
2024/04/24 00:20:31;;;;;;;;;27.00;18.00;;;;;3.46;71.85;100082.02;112928;235;41003;-59
2024/04/24 00:23:05;;;;;;;;;23.67;17.00;;;;;3.45;71.90;100072.86;112766;235;169853;-59
2024/04/24 00:25:45;;;;;;;;;23.00;17.50;;;;;3.47;71.85;100067.71;112546;236;41166;-56
2024/04/24 00:28:30;;;;;;;;;21.00;17.00;;;;;3.49;71.81;100065.85;112570;232;40337;-55
2024/04/24 00:31:06;;;;;;;;;24.33;17.00;;;;;3.49;71.76;100061.80;113186;230;40714;-55
2024/04/24 00:33:40;;;;;;;;;29.00;21.50;;;;;3.48;71.74;100052.86;113170;230;40904;-56
2024/04/24 00:36:19;;;;;;;;;26.75;17.00;;;;;3.44;71.88;100044.38;112510;230;169644;-56
2024/04/24 00:38:59;;;;;;;;;21.50;17.00;;;;;3.45;71.66;100043.69;112528;236;40761;-56
2024/04/24 00:41:37;;;;;;;;;30.33;19.00;;;;;3.46;71.72;100041.77;112343;232;169248;-55
2024/04/24 00:44:13;;;;;;;;;21.00;17.00;;;;;3.44;71.80;100042.03;112825;232;40150;-58
2024/04/24 00:46:58;;;;;;;;;15.00;11.00;;;;;3.40;71.79;100043.61;112374;233;169803;-59
2024/04/24 00:49:36;;;;;;;;;24.00;18.00;;;;;3.40;71.91;100039.91;112536;232;40739;-59
2024/04/24 00:52:14;;;;;;;;;23.00;18.00;;;;;3.37;71.99;100037.88;112548;236;41168;-59
2024/04/24 00:54:55;;;;;;;;;19.00;14.00;;;;;3.32;72.11;100035.70;112406;234;169406;-59
2024/04/24 00:57:34;;;;;;;;;19.00;14.50;;;;;3.29;72.28;100037.83;112922;235;41573;-60
2024/04/24 01:00:12;;;;;;;;;15.00;10.50;;;;;3.23;72.56;100036.10;112490;232;169788;-55
2024/04/24 01:02:47;;;;;;;;;27.00;19.00;;;;;3.21;72.32;100032.05;112548;232;40429;-57
2024/04/24 01:05:23;;;;;;;;;17.00;13.50;;;;;3.23;72.34;100025.67;112360;232;168495;-56
2024/04/24 01:07:59;;;;;;;;;21.67;17.00;;;;;3.23;72.34;100023.31;112514;236;41391;-56
2024/04/24 01:10:33;;;;;;;;;22.00;17.00;;;;;3.21;72.44;100014.28;112359;233;169755;-55
2024/04/24 01:13:07;;;;;;;;;23.00;18.00;;;;;3.20;72.38;100014.73;112535;232;40063;-56
2024/04/24 01:15:53;;;;;;;;;26.00;20.00;;;;;3.20;72.50;100005.81;112581;236;42218;-60
2024/04/24 01:18:37;;;;;;;;;21.00;15.00;;;;;3.14;72.76;100003.08;112387;233;169693;-57
2024/04/24 01:21:18;;;;;;;;;22.00;16.00;;;;;3.05;72.94;100000.35;112485;233;40210;-56
2024/04/24 01:24:04;;;;;;;;;26.75;18.00;;;;;3.04;72.98;99997.27;112357;232;169651;-59
2024/04/24 01:26:48;;;;;;;;;19.00;15.50;;;;;3.02;72.99;99987.84;112599;232;40940;-59
2024/04/24 01:29:26;;;;;;;;;28.00;19.00;;;;;3.03;73.01;99984.95;112387;236;169324;-58
2024/04/24 01:32:01;;;;;;;;;12.00;10.00;;;;;3.06;72.96;99981.75;112521;236;40502;-59
2024/04/24 01:34:37;;;;;;;;;15.67;12.00;;;;;3.02;73.07;99978.95;112458;232;169472;-57
2024/04/24 01:37:20;;;;;;;;;21.33;15.67;;;;;2.99;73.03;99973.70;112474;233;41492;-55
2024/04/24 01:39:54;;;;;;;;;21.00;16.33;;;;;2.99;73.13;99971.45;112525;236;39869;-58
2024/04/24 01:42:35;;;;;;;;;20.50;13.50;;;;;2.97;73.13;99967.55;112362;232;169397;-58
2024/04/24 01:45:10;;;;;;;;;17.33;14.00;;;;;2.94;73.31;99965.15;112611;232;41372;-60
2024/04/24 01:47:47;;;;;;;;;19.00;14.00;;;;;2.96;73.26;99958.20;112417;233;169378;-59
2024/04/24 01:50:34;;;;;;;;;14.50;12.00;;;;;2.95;73.23;99954.92;112495;233;41295;-56
2024/04/24 01:53:09;;;;;;;;;22.00;16.00;;;;;2.88;73.43;99946.95;112377;232;169536;-55
2024/04/24 01:55:47;;;;;;;;;21.00;14.00;;;;;2.81;73.55;99947.91;112629;232;41741;-59
2024/04/24 01:58:27;;;;;;;;;26.67;20.33;;;;;2.81;73.56;99945.83;112628;232;39845;-57
2024/04/24 02:01:04;;;;;;;;;22.00;18.00;;;;;2.77;73.51;99943.34;112687;232;41733;-56
2024/04/24 02:03:44;;;;;;;;;14.00;12.00;;;;;2.72;73.59;99949.91;113019;230;39748;-56
2024/04/24 02:06:24;;;;;;;;;19.00;14.00;;;;;2.67;73.74;99943.36;112444;230;169293;-56
2024/04/24 02:09:01;;;;;;;;;25.00;19.67;;;;;2.62;73.84;99939.55;112556;232;41370;-57
2024/04/24 02:11:41;;;;;;;;;18.50;13.50;;;;;2.55;74.14;99934.39;112369;236;169511;-58
2024/04/24 02:14:15;;;;;;;;;20.50;17.00;;;;;2.50;74.01;99934.38;112540;232;40705;-60
2024/04/24 02:16:53;;;;;;;;;18.00;13.00;;;;;2.45;74.04;99929.11;112513;232;169525;-60
2024/04/24 02:19:31;;;;;;;;;17.33;13.00;;;;;2.40;74.21;99924.83;112589;233;40957;-57
2024/04/24 02:22:10;;;;;;;;;15.00;11.00;;;;;2.32;74.41;99923.30;112565;236;40771;-55
2024/04/24 02:27:42;;;;;;;;;20.00;16.00;;;;;2.28;74.62;99916.94;112587;232;40063;-59
2024/04/24 02:30:16;;;;;;;;;23.00;16.00;;;;;2.26;74.59;99912.56;112354;233;169291;-56
2024/04/24 02:32:50;;;;;;;;;13.00;9.33;;;;;2.27;74.65;99906.29;112559;232;40006;-57
2024/04/24 02:35:29;;;;;;;;;20.67;15.00;;;;;2.25;74.79;99905.70;112383;232;169330;-56
2024/04/24 02:38:09;;;;;;;;;25.00;18.00;;;;;2.30;74.76;99901.83;112526;232;39953;-55
2024/04/24 02:40:47;;;;;;;;;15.67;12.67;;;;;2.32;74.89;99899.81;112405;233;169596;-59
2024/04/24 02:43:22;;;;;;;;;11.00;9.00;;;;;2.33;75.01;99890.46;112577;233;40682;-60
2024/04/24 02:46:03;;;;;;;;;12.50;8.75;;;;;2.36;75.03;99887.50;112555;236;41301;-56
2024/04/24 02:48:39;;;;;;;;;17.33;12.33;;;;;2.41;75.07;99881.02;112346;237;169100;-56
2024/04/24 02:51:21;;;;;;;;;16.00;12.00;;;;;2.40;75.17;99879.35;112567;232;40312;-56
2024/04/24 02:53:56;;;;;;;;;19.00;13.50;;;;;2.38;75.40;99881.49;112339;232;169649;-58
2024/04/24 02:56:37;;;;;;;;;22.00;16.00;;;;;2.36;75.34;99872.14;112559;232;40209;-60
2024/04/24 02:59:14;;;;;;;;;11.00;9.00;;;;;2.40;75.43;99871.69;112345;232;169475;-55
2024/04/24 03:01:48;;;;;;;;;19.00;14.00;;;;;2.45;75.43;99864.48;112505;235;40504;-54
2024/04/24 03:04:28;;;;;;;;;14.00;10.00;;;;;2.46;75.22;99862.64;112545;236;41375;-58
2024/04/24 03:07:03;;;;;;;;;22.00;16.50;;;;;2.47;75.24;99856.25;112600;232;42084;-58
2024/04/24 03:09:45;;;;;;;;;19.00;14.50;;;;;2.49;75.27;99852.16;113004;230;40593;-55
2024/04/24 03:12:20;;;;;;;;;19.33;14.00;;;;;2.49;75.40;99851.82;112463;234;169147;-56
2024/04/24 03:15:04;;;;;;;;;31.00;23.00;;;;;2.52;75.29;99843.86;112615;232;40415;-56
2024/04/24 03:17:40;;;;;;;;;40.67;30.00;;;;;2.52;75.49;99839.27;112414;236;169678;-56
2024/04/24 03:20:14;;;;;;;;;41.33;30.33;;;;;2.49;75.46;99831.60;112567;232;41227;-56
2024/04/24 03:22:59;;;;;;;;;35.00;27.25;;;;;2.46;75.57;99826.92;112412;232;169773;-57
2024/04/24 03:25:39;;;;;;;;;38.50;27.50;;;;;2.48;75.58;99824.73;112512;233;40766;-59
2024/04/24 03:28:20;;;;;;;;;28.50;22.00;;;;;2.47;75.62;99822.39;112552;236;41699;-59
2024/04/24 03:30:59;;;;;;;;;22.50;16.00;;;;;2.47;75.64;99820.02;112348;233;170144;-59
2024/04/24 03:33:37;;;;;;;;;15.50;11.00;;;;;2.47;75.80;99815.40;112592;232;39815;-58
2024/04/24 03:36:11;;;;;;;;;12.00;10.00;;;;;2.48;75.89;99815.64;112335;237;168985;-59
2024/04/24 03:38:55;;;;;;;;;23.00;17.00;;;;;2.50;75.87;99816.86;112585;232;40993;-56
2024/04/24 03:41:29;;;;;;;;;22.00;16.00;;;;;2.51;75.95;99806.30;112396;232;169445;-57
2024/04/24 03:44:04;;;;;;;;;19.00;14.00;;;;;2.54;76.11;99803.69;112534;232;40392;-58
2024/04/24 03:46:41;;;;;;;;;15.00;12.00;;;;;2.49;76.14;99800.14;112368;232;169857;-59
2024/04/24 03:49:19;;;;;;;;;17.00;12.00;;;;;2.54;76.19;99797.33;112474;232;40259;-56
2024/04/24 03:51:57;;;;;;;;;18.00;14.00;;;;;2.56;76.29;99794.90;112521;232;40571;-55
2024/04/24 03:54:34;;;;;;;;;15.00;11.00;;;;;2.58;76.36;99790.70;112316;232;169772;-57
2024/04/24 03:57:14;;;;;;;;;21.00;16.00;;;;;2.61;76.34;99786.27;112510;236;41492;-56
2024/04/24 03:59:56;;;;;;;;;18.00;14.00;;;;;2.69;76.28;99784.92;112335;232;169710;-59
2024/04/24 04:02:34;;;;;;;;;12.33;10.00;;;;;2.72;76.50;99781.06;112490;236;39935;-58
2024/04/24 04:05:09;;;;;;;;;18.00;13.00;;;;;2.77;76.45;99781.80;112340;236;169940;-56
2024/04/24 04:07:48;;;;;;;;;21.00;16.00;;;;;2.82;76.52;99775.60;112499;232;40307;-57
2024/04/24 04:10:26;;;;;;;;;18.00;15.00;;;;;2.90;76.43;99771.75;112577;232;40121;-56
2024/04/24 04:13:00;;;;;;;;;18.50;14.00;;;;;2.97;76.33;99771.20;112425;233;169320;-54
2024/04/24 04:15:34;;;;;;;;;20.00;14.50;;;;;3.01;76.42;99771.83;112613;232;40508;-60
2024/04/24 04:18:08;;;;;;;;;15.33;12.67;;;;;3.05;76.57;99767.52;112385;236;169912;-60
2024/04/24 04:20:46;;;;;;;;;20.25;15.00;;;;;3.11;76.39;99768.30;112923;232;40819;-57
2024/04/24 04:23:21;;;;;;;;;21.00;16.00;;;;;3.17;76.53;99764.32;112664;232;170021;-57
2024/04/24 04:25:59;;;;;;;;;17.00;14.00;;;;;3.20;76.54;99763.30;112531;233;40015;-60
2024/04/24 04:28:35;;;;;;;;;15.25;12.75;;;;;3.20;76.83;99757.20;112559;232;39947;-55
2024/04/24 04:31:09;;;;;;;;;18.00;14.00;;;;;3.22;76.67;99754.18;112477;232;40812;-55
2024/04/24 04:33:48;;;;;;;;;15.00;12.00;;;;;3.26;76.54;99747.03;112537;232;40930;-57
2024/04/24 04:36:34;;;;;;;;;21.00;15.00;;;;;3.34;76.47;99746.70;112408;232;169556;-60
2024/04/24 04:39:08;;;;;;;;;21.00;15.00;;;;;3.42;76.41;99740.87;112962;235;40540;-58
2024/04/24 04:41:45;;;;;;;;;22.67;15.67;;;;;3.47;76.25;99737.50;112576;232;169522;-60
2024/04/24 04:44:24;;;;;;;;;11.33;9.00;;;;;3.52;76.24;99734.88;112550;232;42465;-58
2024/04/24 04:47:02;;;;;;;;;15.50;12.00;;;;;3.55;76.13;99735.02;112370;232;169719;-57
2024/04/24 04:49:40;;;;;;;;;21.00;15.00;;;;;3.59;76.19;99731.24;112540;232;40297;-58
2024/04/24 04:52:17;;;;;;;;;21.33;15.33;;;;;3.61;76.01;99729.66;112604;232;40225;-59
2024/04/24 04:54:57;;;;;;;;;22.50;16.00;;;;;3.67;75.93;99728.12;112360;232;169677;-58
2024/04/24 04:57:35;;;;;;;;;17.50;14.00;;;;;3.72;75.91;99723.13;112566;232;40148;-57
2024/04/24 05:00:11;;;;;;;;;23.00;17.00;;;;;3.73;75.84;99726.14;112440;233;169465;-56
2024/04/24 05:02:45;;;;;;;;;15.00;12.00;;;;;3.76;75.90;99721.05;112604;232;40856;-55
2024/04/24 05:05:23;;;;;;;;;20.00;15.00;;;;;3.79;75.75;99712.56;112503;236;169857;-61
2024/04/24 05:08:03;;;;;;;;;19.00;14.00;;;;;3.77;75.71;99713.05;112593;233;40816;-59
2024/04/24 05:10:48;;;;;;;;;13.00;10.00;;;;;3.77;75.61;99708.54;112618;236;40263;-57
2024/04/24 05:13:23;;;;;;;;;15.00;11.00;;;;;3.76;75.58;99700.94;112589;234;40281;-58
2024/04/24 05:15:58;;;;;;;;;15.00;12.00;;;;;3.76;75.53;99699.50;112936;232;39889;-55
2024/04/24 05:18:35;;;;;;;;;13.00;10.00;;;;;3.77;75.55;99697.14;112565;232;169709;-58
2024/04/24 05:21:13;;;;;;;;;14.50;11.50;;;;;3.79;75.45;99693.09;112884;231;41878;-57
2024/04/24 05:23:51;;;;;;;;;13.00;11.00;;;;;3.88;75.41;99694.36;112625;232;170225;-59
2024/04/24 05:29:21;;;;;;;;;20.00;13.00;;;;;3.96;75.19;99686.83;112671;232;169758;-59
2024/04/24 05:31:55;;;;;;;;;15.00;13.00;;;;;3.99;75.24;99681.98;112741;235;40603;-57
2024/04/24 05:34:32;;;;;;;;;18.00;14.00;;;;;4.02;75.14;99675.52;112905;232;40589;-58
2024/04/24 05:37:10;;;;;;;;;21.50;14.00;;;;;4.08;75.14;99665.55;112497;232;169242;-58
2024/04/24 05:39:46;;;;;;;;;16.00;12.00;;;;;4.12;75.17;99662.13;112911;232;40465;-55
2024/04/24 05:42:21;;;;;;;;;16.67;13.67;;;;;4.16;75.12;99660.33;112573;232;173189;-56
2024/04/24 05:44:55;;;;;;;;;14.00;11.00;;;;;4.26;75.02;99662.90;112901;232;40044;-55
2024/04/24 05:47:30;;;;;;;;;16.00;13.00;;;;;4.32;75.01;99661.00;112695;232;169610;-57
2024/04/24 05:50:06;;;;;;;;;18.50;15.00;;;;;4.35;74.94;99657.91;112841;232;39888;-56
2024/04/24 05:52:42;;;;;;;;;10.50;7.50;;;;;4.39;74.79;99657.59;112903;232;40441;-56
2024/04/24 05:55:25;;;;;;;;;18.33;12.00;;;;;4.42;74.80;99656.67;112502;235;42174;-55
2024/04/24 05:58:07;;;;;;;;;12.25;10.00;;;;;4.44;74.88;99653.38;112804;232;40217;-55
2024/04/24 06:00:45;;;;;;;;;16.00;11.00;;;;;4.53;74.67;99649.67;112369;235;169642;-58
2024/04/24 06:03:28;;;;;;;;;6.00;5.00;;;;;4.58;74.52;99650.38;112770;232;40315;-58
2024/04/24 06:06:04;;;;;;;;;13.00;10.00;;;;;4.62;74.47;99640.31;112439;232;169446;-56
2024/04/24 06:08:42;;;;;;;;;19.00;14.00;;;;;4.66;74.33;99641.27;112387;236;40552;-56
2024/04/24 06:11:17;;;;;;;;;16.00;12.00;;;;;4.70;74.27;99637.30;112210;233;170052;-56
2024/04/24 06:14:03;;;;;;;;;18.00;14.00;;;;;4.73;74.36;99638.73;112393;232;40519;-59
2024/04/24 06:16:44;;;;;;;;;13.50;10.75;;;;;4.77;74.17;99636.53;112432;232;40898;-59
2024/04/24 06:19:20;;;;;;;;;20.00;13.00;;;;;4.79;74.16;99636.27;112594;232;40042;-57
2024/04/24 06:22:01;;;;;;;;;18.00;12.00;;;;;4.83;74.08;99632.30;112855;231;40585;-58
2024/04/24 06:24:37;;;;;;;;;17.00;13.00;;;;;4.85;74.04;99630.11;112328;234;169596;-58
2024/04/24 06:27:13;;;;;;;;;16.50;13.00;;;;;4.89;73.94;99623.31;112471;236;39735;-58
2024/04/24 06:29:49;;;;;;;;;16.00;12.67;;;;;4.94;73.93;99626.18;112348;233;169721;-59
2024/04/24 06:32:31;;;;;;;;;13.00;11.00;;;;;5.00;73.99;99625.66;112631;235;41255;-59
2024/04/24 06:35:08;;;;;;;;;17.00;13.00;;;;;5.04;73.96;99624.91;112351;236;169845;-56
2024/04/24 06:37:43;;;;;;;;;17.50;12.50;;;;;5.08;73.75;99617.13;112462;236;40078;-57
2024/04/24 06:40:18;;;;;;;;;17.00;14.00;;;;;5.09;73.81;99616.38;112540;233;40552;-59
2024/04/24 06:43:01;;;;;;;;;17.00;13.00;;;;;5.10;73.90;99611.56;112321;234;169821;-59
2024/04/24 06:45:42;;;;;;;;;17.00;14.00;;;;;5.12;73.83;99612.02;112406;233;41535;-58
2024/04/24 06:48:25;;;;;;;;;18.50;13.00;;;;;5.18;73.88;99606.48;111396;234;1030130;-59
2024/04/24 06:51:06;;;;;;;;;17.00;12.00;;;;;5.24;73.74;99599.19;112443;233;40014;-59
2024/04/24 06:53:45;;;;;;;;;17.00;13.00;;;;;5.30;73.89;99594.23;112266;233;170853;-55
2024/04/24 06:56:21;;;;;;;;;16.00;12.00;;;;;5.33;73.94;99588.30;112399;236;40187;-55
2024/04/24 06:58:58;;;;;;;;;17.00;13.00;;;;;5.37;74.03;99586.39;112221;236;169914;-57
2024/04/24 07:01:34;;;;;;;;;16.50;14.00;;;;;5.44;74.17;99582.64;112417;233;39584;-56
2024/04/24 07:04:09;;;;;;;;;18.33;13.00;;;;;5.50;74.14;99578.70;112400;233;41145;-59
2024/04/24 07:06:46;;;;;;;;;17.00;13.50;;;;;5.56;74.14;99576.70;112245;233;169696;-59
2024/04/24 07:09:23;;;;;;;;;17.00;13.00;;;;;5.62;74.11;99572.05;112598;233;40994;-59
2024/04/24 07:12:02;;;;;;;;;16.33;12.67;;;;;5.68;74.12;99567.09;112274;233;170358;-59
2024/04/24 07:14:39;;;;;;;;;15.00;12.00;;;;;5.78;74.17;99560.18;112457;233;40888;-56
2024/04/24 07:17:17;;;;;;;;;17.00;12.50;;;;;5.93;73.99;99556.10;112271;233;169590;-56
2024/04/24 07:19:57;;;;;;;;;17.00;12.00;;;;;6.08;73.93;99557.74;112506;233;40254;-60
2024/04/24 07:22:32;;;;;;;;;21.00;15.00;;;;;6.18;73.82;99548.48;112462;233;41722;-59
2024/04/24 07:25:10;;;;;;;;;16.00;11.00;;;;;6.33;73.52;99548.90;112261;236;169515;-55
2024/04/24 07:27:49;;;;;;;;;20.67;15.67;;;;;6.46;73.28;99546.84;112474;233;41776;-55
2024/04/24 07:30:25;;;;;;;;;17.33;12.67;;;;;6.51;73.05;99545.56;112286;232;170523;-56
2024/04/24 07:32:59;;;;;;;;;16.00;13.00;;;;;6.57;72.87;99541.84;112489;232;39908;-56
2024/04/24 07:35:34;;;;;;;;;19.00;13.00;;;;;6.69;72.96;99536.44;112321;232;169656;-58
2024/04/24 07:38:11;;;;;;;;;16.50;12.25;;;;;6.89;72.82;99533.41;112447;232;41353;-59
2024/04/24 07:40:47;;;;;;;;;19.33;16.00;;;;;6.95;72.60;99525.10;112425;236;39967;-58
2024/04/24 07:43:26;;;;;;;;;16.00;12.50;;;;;6.96;72.50;99520.70;112371;236;40250;-58
2024/04/24 07:46:03;;;;;;;;;17.33;14.00;;;;;7.07;72.52;99519.75;112417;232;41217;-56
2024/04/24 07:48:40;;;;;;;;;17.00;12.33;;;;;7.20;72.18;99515.65;112276;232;169087;-56
2024/04/24 07:51:14;;;;;;;;;18.00;14.00;;;;;7.38;72.05;99515.67;112415;232;40773;-55
2024/04/24 07:53:55;;;;;;;;;22.00;15.00;;;;;7.96;72.41;99504.70;112432;235;169144;-58
2024/04/24 07:56:34;;;;;;;;;18.00;14.00;;;;;9.19;72.54;99490.05;112432;236;41470;-59
2024/04/24 07:59:19;;;;;;;;;22.00;16.00;;;;;10.13;71.56;99482.28;112280;232;169436;-58
2024/04/24 08:01:53;;;;;;;;;21.67;16.33;;;;;10.86;68.88;99476.52;112413;233;40528;-58
2024/04/24 08:04:26;;;;;;;;;22.00;16.00;;;;;11.38;68.11;99479.52;112472;232;40440;-59
2024/04/24 08:07:03;;;;;;;;;21.67;17.00;;;;;11.88;68.04;99478.73;112255;233;169748;-58
2024/04/24 08:09:40;;;;;;;;;20.50;17.00;;;;;12.05;66.16;99478.33;112856;235;40734;-56
2024/04/24 08:12:21;;;;;;;;;18.75;14.50;;;;;11.82;65.35;99478.77;112492;233;169666;-55
2024/04/24 08:14:59;;;;;;;;;18.00;15.00;;;;;11.35;64.51;99481.21;112427;232;40537;-64
2024/04/24 08:17:41;;;;;;;;;19.33;15.33;;;;;10.99;64.40;99477.02;112316;232;169758;-56
2024/04/24 08:20:16;;;;;;;;;21.00;17.00;;;;;10.72;64.11;99482.23;112665;235;41887;-58
2024/04/24 08:22:50;;;;;;;;;22.00;18.00;;;;;10.25;64.31;99478.76;112830;232;40021;-57
2024/04/24 08:25:26;;;;;;;;;18.00;15.00;;;;;10.03;64.47;99474.48;112410;236;41952;-56
2024/04/24 08:28:06;;;;;;;;;17.00;15.00;;;;;9.93;64.57;99475.39;112449;232;39965;-56
2024/04/24 08:30:48;;;;;;;;;21.33;16.67;;;;;10.00;64.95;99464.80;112351;232;169371;-60
2024/04/24 08:33:26;;;;;;;;;18.33;15.00;;;;;10.11;64.80;99465.80;112814;232;40511;-60
2024/04/24 08:36:03;;;;;;;;;21.00;17.00;;;;;10.22;65.07;99463.98;112423;232;170141;-59
2024/04/24 08:38:41;;;;;;;;;16.00;13.00;;;;;10.37;65.45;99464.58;112473;232;39936;-57
2024/04/24 08:41:17;;;;;;;;;15.00;13.00;;;;;10.65;65.34;99456.48;112341;232;169883;-56
2024/04/24 08:43:55;;;;;;;;;19.75;16.75;;;;;10.67;64.77;99451.91;112410;236;40961;-56
2024/04/24 08:46:31;;;;;;;;;18.50;15.00;;;;;10.72;64.34;99453.71;112423;236;40549;-57
2024/04/24 08:49:07;;;;;;;;;22.00;17.00;;;;;10.71;64.19;99452.70;112294;233;169124;-59
2024/04/24 08:51:42;;;;;;;;;22.00;16.67;;;;;10.73;63.77;99444.94;112823;235;39640;-60
2024/04/24 08:54:20;;;;;;;;;23.00;16.00;;;;;10.65;63.99;99444.47;112440;233;169838;-55
2024/04/24 08:57:06;;;;;;;;;20.00;16.00;;;;;10.79;64.00;99440.02;112493;232;40701;-56
2024/04/24 08:59:47;;;;;;;;;21.50;16.50;;;;;11.07;63.63;99432.03;112262;232;170234;-57
2024/04/24 09:02:26;;;;;;;;;19.00;15.00;;;;;11.49;63.54;99432.95;112455;232;40098;-55
2024/04/24 09:05:03;;;;;;;;;19.00;16.00;;;;;11.91;63.47;99427.95;112322;236;171435;-60
2024/04/24 09:07:41;;;;;;;;;19.67;16.33;;;;;12.47;62.92;99418.50;112431;232;40998;-59
2024/04/24 09:10:18;;;;;;;;;22.67;19.00;;;;;13.21;62.12;99410.79;112440;236;41569;-57
2024/04/24 09:12:53;;;;;;;;;22.25;17.50;;;;;13.52;61.31;99407.11;112217;237;169936;-57
2024/04/24 09:15:29;;;;;;;;;20.00;16.50;;;;;13.61;60.63;99401.59;112413;236;41217;-56
2024/04/24 09:18:02;;;;;;;;;23.00;19.00;;;;;13.58;59.69;99400.44;112254;232;170508;-56
2024/04/24 09:20:47;;;;;;;;;22.00;17.00;;;;;13.66;59.69;99391.66;112448;236;40300;-60
2024/04/24 09:23:31;;;;;;;;;20.33;15.00;;;;;13.82;59.41;99391.35;112248;232;170125;-59
2024/04/24 09:26:17;;;;;;;;;21.00;17.00;;;;;14.11;58.96;99389.62;112399;233;40143;-57
2024/04/24 09:28:53;;;;;;;;;23.33;18.67;;;;;14.05;58.16;99389.36;112458;236;41089;-60
2024/04/24 09:31:30;;;;;;;;;20.50;16.00;;;;;14.07;57.59;99387.00;112475;232;40469;-60
2024/04/24 09:34:14;;;;;;;;;20.50;16.75;;;;;13.76;57.67;99382.52;112534;236;40230;-59
2024/04/24 09:36:56;;;;;;;;;23.75;18.50;;;;;14.01;57.90;99379.73;112376;232;169767;-59
2024/04/24 09:39:32;;;;;;;;;20.00;17.33;;;;;14.10;57.37;99375.52;112822;232;41386;-60
2024/04/24 09:42:10;;;;;;;;;20.00;17.00;;;;;14.15;56.68;99375.55;112496;232;169697;-58
2024/04/24 09:44:49;;;;;;;;;21.00;16.50;;;;;13.86;56.13;99371.41;112484;232;41621;-57
2024/04/24 09:47:29;;;;;;;;;20.00;17.00;;;;;13.37;56.32;99374.42;112320;232;172483;-58
2024/04/24 09:50:07;;;;;;;;;20.00;15.33;;;;;12.96;56.20;99367.29;112680;234;41381;-61
2024/04/24 09:52:46;;;;;;;;;19.00;14.00;;;;;12.62;56.93;99363.08;112833;235;41262;-59
2024/04/24 09:55:27;;;;;;;;;22.00;18.00;;;;;12.37;57.50;99356.94;112240;233;169733;-58
2024/04/24 09:58:04;;;;;;;;;25.00;20.00;;;;;12.36;57.96;99351.83;112420;236;39843;-58
2024/04/24 10:00:41;;;;;;;;;20.50;17.50;;;;;12.34;57.82;99353.39;112323;233;170032;-60
2024/04/24 10:03:20;;;;;;;;;20.00;15.00;;;;;12.27;57.88;99349.35;112512;232;39915;-60
2024/04/24 10:06:03;;;;;;;;;21.00;17.00;;;;;12.37;58.35;99346.11;112276;236;170211;-60
2024/04/24 10:08:45;;;;;;;;;19.33;16.00;;;;;12.30;58.04;99345.88;112466;236;39854;-59
2024/04/24 10:11:26;;;;;;;;;20.00;17.00;;;;;12.19;58.47;99345.95;112302;236;170013;-60
2024/04/24 10:14:03;;;;;;;;;18.00;15.00;;;;;12.05;58.02;99345.52;112434;236;40721;-62
2024/04/24 10:16:39;;;;;;;;;21.50;17.00;;;;;11.91;58.31;99348.48;112420;236;41334;-61
2024/04/24 10:19:27;;;;;;;;;21.75;17.50;;;;;11.69;58.70;99348.15;112322;233;169935;-58
2024/04/24 10:22:06;;;;;;;;;24.50;19.00;;;;;11.49;58.73;99343.81;112432;236;40597;-58
2024/04/24 10:24:43;;;;;;;;;18.00;15.00;;;;;11.31;59.53;99340.84;112260;236;169949;-59
2024/04/24 10:27:19;;;;;;;;;16.50;14.00;;;;;11.37;59.85;99336.77;112485;236;40957;-60
2024/04/24 10:29:57;;;;;;;;;21.00;17.00;;;;;11.39;59.66;99332.83;112284;233;169828;-60
2024/04/24 10:32:33;;;;;;;;;17.00;14.00;;;;;11.36;59.72;99332.27;112765;232;41398;-55
2024/04/24 10:35:10;;;;;;;;;19.00;15.00;;;;;11.50;60.33;99331.83;112651;235;169328;-58
2024/04/24 10:37:53;;;;;;;;;19.00;16.00;;;;;11.81;60.40;99325.63;112393;236;40226;-59
2024/04/24 10:40:31;;;;;;;;;18.67;15.00;;;;;11.79;59.93;99318.10;112466;232;40614;-56
2024/04/24 10:43:08;;;;;;;;;21.00;17.00;;;;;11.78;60.70;99321.35;112322;235;170189;-56
2024/04/24 10:45:44;;;;;;;;;19.75;15.75;;;;;11.77;60.44;99321.70;112467;235;40128;-58
2024/04/24 10:48:23;;;;;;;;;22.00;17.50;;;;;11.66;60.34;99322.57;112414;235;169945;-56
2024/04/24 10:51:02;;;;;;;;;23.50;17.50;;;;;11.82;60.30;99317.20;112554;233;40197;-56
2024/04/24 10:53:51;;;;;;;;;19.00;15.00;;;;;12.02;60.58;99317.11;112281;236;170574;-58
2024/04/24 10:56:37;;;;;;;;;27.00;19.00;;;;;12.14;60.62;99317.93;112676;235;40466;-58
2024/04/24 10:59:30;;;;;;;;;17.33;14.33;;;;;11.99;60.38;99316.77;112608;232;170008;-60
2024/04/24 11:02:21;;;;;;;;;23.67;18.00;;;;;11.85;60.48;99318.58;112405;236;40382;-59
2024/04/24 11:04:57;;;;;;;;;23.00;18.25;;;;;11.67;60.73;99319.48;112466;236;40862;-56
2024/04/24 11:07:32;;;;;;;;;17.75;14.00;;;;;11.61;60.69;99317.04;112423;234;40073;-58
2024/04/24 11:10:09;;;;;;;;;18.00;14.50;;;;;11.50;60.75;99315.68;112395;236;41236;-58
2024/04/24 11:12:49;;;;;;;;;18.67;15.00;;;;;11.45;60.93;99317.72;112334;233;169615;-59
2024/04/24 11:15:25;;;;;;;;;18.50;14.50;;;;;11.43;61.06;99315.83;112455;234;40800;-57
2024/04/24 11:18:07;;;;;;;;;17.00;15.00;;;;;11.34;61.07;99318.11;112325;233;169675;-55
2024/04/24 11:20:44;;;;;;;;;19.00;15.00;;;;;11.14;61.53;99317.39;112428;236;40787;-57
2024/04/24 11:23:23;;;;;;;;;15.50;13.00;;;;;11.06;61.73;99317.98;112390;232;170320;-58
2024/04/24 11:26:03;;;;;;;;;19.50;16.00;;;;;11.05;61.93;99313.70;112648;232;40429;-60
2024/04/24 11:28:37;;;;;;;;;16.33;12.33;;;;;11.03;62.12;99314.10;112791;232;40985;-57
2024/04/24 11:31:13;;;;;;;;;19.00;17.00;;;;;10.84;62.21;99312.80;112263;232;169707;-57
2024/04/24 11:33:48;;;;;;;;;21.00;14.33;;;;;10.78;62.67;99306.86;112375;232;41144;-59
2024/04/24 11:36:27;;;;;;;;;22.00;16.00;;;;;10.66;62.96;99307.10;112209;233;169702;-59
2024/04/24 11:39:06;;;;;;;;;17.75;14.25;;;;;10.65;62.76;99307.48;112412;233;40605;-57
2024/04/24 11:41:44;;;;;;;;;18.75;14.50;;;;;10.71;62.83;99304.13;112257;236;169961;-58
2024/04/24 11:44:21;;;;;;;;;19.00;15.00;;;;;10.62;63.20;99304.04;112441;232;40396;-59
2024/04/24 11:46:56;;;;;;;;;17.00;13.00;;;;;10.57;63.40;99301.42;112402;232;41620;-59
2024/04/24 11:49:30;;;;;;;;;20.00;15.00;;;;;10.49;63.67;99297.67;112459;235;40788;-57
2024/04/24 11:52:11;;;;;;;;;20.00;16.00;;;;;10.23;64.18;99296.56;112796;232;41087;-56
2024/04/24 11:54:52;;;;;;;;;17.67;14.00;;;;;10.06;64.41;99294.35;112382;233;169725;-60
2024/04/24 11:57:38;;;;;;;;;19.00;15.25;;;;;10.14;64.61;99292.96;112456;232;41709;-60
2024/04/24 12:00:14;;;;;;;;;19.50;14.50;;;;;10.09;65.04;99289.82;112279;232;169732;-60
2024/04/24 12:02:55;;;;;;;;;19.50;14.00;;;;;10.02;65.09;99286.60;112426;232;40873;-60
2024/04/24 12:05:38;;;;;;;;;18.33;14.67;;;;;10.03;65.36;99286.35;112261;236;169850;-60
2024/04/24 12:08:15;;;;;;;;;19.50;15.00;;;;;10.16;65.55;99283.46;112435;236;40349;-59
2024/04/24 12:10:57;;;;;;;;;21.33;16.00;;;;;10.16;65.34;99291.73;112433;236;39944;-58
2024/04/24 12:13:37;;;;;;;;;14.50;11.50;;;;;9.87;65.57;99286.89;112455;234;39786;-58
2024/04/24 12:16:11;;;;;;;;;19.00;16.00;;;;;9.68;65.97;99285.73;113044;234;39944;-57